New Derry, Pennsylvania
Current Conditions -  °F | °C
As of 4:15 AM on Monday 24 Nov 2014 (Local Time) from KLBE Reporting Station
Overcast Overcast  
Wind Chill: 63°   Ceiling: 5000
Heat Index: 63°   Visibility: 10mi
Dew Point: 50°   Wind: 21mph
Humidity: 63%   Direction: 170°S
Pressure: 29.46"   Gusts: 31mph
Location:  40.35°N, 79.32°W
Report Text: KLBE 240915Z AUTO 17018G27KT 10SM OVC050 17/10 A2946 RMK AO2
Loading
Personal Weather Stations






























Interactive Weather Map New forecast layout! Learn more

10-Day Weather Forecast

Advertisements
Track Severe Weather on mobile